Agnes, Georgia
Current Conditions -  °F | °C
As of 1:55 AM on Monday 24 Nov 2014 (Local Time) from KHQU Reporting Station
Broken Clouds Broken Clouds  
Wind Chill: 19°   Ceiling: 2100
Heat Index: 19°   Visibility: 10mi
Dew Point: 18°   Wind: 8mph
Humidity: 96%   Direction: 210°SSW
Pressure: 29.85"   Gusts: NA
Location:  33.7816°N, 82.4511°W
Report Text: KHQU 240655Z AUTO 21007KT 10SM BKN021 19/18 A2985 RMK AO1 T01850178
Loading
Personal Weather Stations






























Interactive Weather Map New forecast layout! Learn more

10-Day Weather Forecast

Advertisements
Track Severe Weather on mobile